Falun, Kansas
Current Conditions -  °F | °C
As of 2:53 PM on Friday 24 Oct 2014 (Local Time) from KSLN Reporting Station
Clear Clear  
Wind Chill: 82°   Ceiling: Unl
Heat Index: 83°   Visibility: 10mi
Dew Point: 63°   Wind: 12mph
Humidity: 52%   Direction: 200°SSW
Pressure: 29.96"   Gusts: NA
Location:  38.67°N, 97.76°W
Report Text: KSLN 241953Z 20010KT 10SM CLR 28/17 A2996 RMK AO2 SLP136 T02780172
Loading
Personal Weather Stations






























Interactive Weather Map
Tropical Storm Tracking
New forecast layout! Learn more

10-Day Weather Forecast

Advertisements
Track Severe Weather on mobile